sensor_id;sensor_type;location;lat;lon;timestamp;pressure;altitude;pressure_sealevel;temperature;humidity
19236;BME280;9752;54.270;12.470;2024-02-21T00:01:53;101999.78;;;8.17;100.00
19236;BME280;9752;54.270;12.470;2024-02-21T00:06:54;102002.31;;;8.26;100.00
19236;BME280;9752;54.270;12.470;2024-02-21T00:11:57;101989.53;;;8.28;100.00
19236;BME280;9752;54.270;12.470;2024-02-21T00:17:00;101987.66;;;8.16;100.00
19236;BME280;9752;54.270;12.470;2024-02-21T00:22:01;101984.03;;;8.14;100.00
19236;BME280;9752;54.270;12.470;2024-02-21T00:27:05;101971.09;;;8.14;100.00
19236;BME280;9752;54.270;12.470;2024-02-21T00:32:06;101961.16;;;8.19;100.00
19236;BME280;9752;54.270;12.470;2024-02-21T00:37:08;101955.78;;;8.26;100.00
19236;BME280;9752;54.270;12.470;2024-02-21T00:42:11;101949.56;;;8.24;100.00
19236;BME280;9752;54.270;12.470;2024-02-21T00:47:13;101946.31;;;8.16;100.00
19236;BME280;9752;54.270;12.470;2024-02-21T00:52:14;101931.09;;;8.19;100.00
19236;BME280;9752;54.270;12.470;2024-02-21T00:57:17;101926.97;;;8.32;100.00
19236;BME280;9752;54.270;12.470;2024-02-21T01:02:19;101917.38;;;8.31;100.00
19236;BME280;9752;54.270;12.470;2024-02-21T01:07:21;101915.09;;;8.34;100.00
19236;BME280;9752;54.270;12.470;2024-02-21T01:12:25;101907.09;;;8.41;100.00
19236;BME280;9752;54.270;12.470;2024-02-21T01:17:26;101906.53;;;8.25;100.00
19236;BME280;9752;54.270;12.470;2024-02-21T01:22:28;101901.13;;;8.32;100.00
19236;BME280;9752;54.270;12.470;2024-02-21T01:27:31;101897.22;;;8.27;100.00
19236;BME280;9752;54.270;12.470;2024-02-21T01:32:33;101890.78;;;8.32;100.00
19236;BME280;9752;54.270;12.470;2024-02-21T01:37:34;101891.84;;;8.44;100.00
19236;BME280;9752;54.270;12.470;2024-02-21T01:42:39;101877.28;;;8.45;100.00
19236;BME280;9752;54.270;12.470;2024-02-21T01:47:41;101860.03;;;8.35;100.00
19236;BME280;9752;54.270;12.470;2024-02-21T01:52:43;101856.59;;;8.45;100.00
19236;BME280;9752;54.270;12.470;2024-02-21T01:57:49;101847.66;;;8.51;100.00
19236;BME280;9752;54.270;12.470;2024-02-21T02:02:51;101843.16;;;8.49;100.00
19236;BME280;9752;54.270;12.470;2024-02-21T02:07:53;101822.34;;;8.57;100.00
19236;BME280;9752;54.270;12.470;2024-02-21T02:12:56;101813.28;;;8.63;100.00
19236;BME280;9752;54.270;12.470;2024-02-21T02:17:57;101808.50;;;8.67;100.00
19236;BME280;9752;54.270;12.470;2024-02-21T02:22:59;101796.06;;;8.63;100.00
19236;BME280;9752;54.270;12.470;2024-02-21T02:28:03;101790.91;;;8.73;100.00
19236;BME280;9752;54.270;12.470;2024-02-21T02:33:05;101777.47;;;8.67;100.00
19236;BME280;9752;54.270;12.470;2024-02-21T02:38:07;101766.19;;;8.67;100.00
19236;BME280;9752;54.270;12.470;2024-02-21T02:43:10;101762.06;;;8.69;100.00
19236;BME280;9752;54.270;12.470;2024-02-21T02:48:12;101744.22;;;8.72;100.00
19236;BME280;9752;54.270;12.470;2024-02-21T02:53:13;101747.94;;;8.86;100.00
19236;BME280;9752;54.270;12.470;2024-02-21T02:58:16;101736.31;;;8.70;100.00
19236;BME280;9752;54.270;12.470;2024-02-21T03:03:18;101729.59;;;8.72;100.00
19236;BME280;9752;54.270;12.470;2024-02-21T03:08:20;101713.19;;;8.72;100.00
19236;BME280;9752;54.270;12.470;2024-02-21T03:13:24;101688.88;;;8.70;100.00
19236;BME280;9752;54.270;12.470;2024-02-21T03:18:26;101686.81;;;8.66;100.00
19236;BME280;9752;54.270;12.470;2024-02-21T03:23:27;101685.00;;;8.65;100.00
19236;BME280;9752;54.270;12.470;2024-02-21T03:28:30;101676.97;;;8.72;100.00
19236;BME280;9752;54.270;12.470;2024-02-21T03:33:32;101671.94;;;8.73;100.00
19236;BME280;9752;54.270;12.470;2024-02-21T03:38:34;101665.56;;;8.80;100.00
19236;BME280;9752;54.270;12.470;2024-02-21T03:43:38;101664.16;;;8.73;100.00
19236;BME280;9752;54.270;12.470;2024-02-21T03:48:40;101651.38;;;8.75;100.00
19236;BME280;9752;54.270;12.470;2024-02-21T03:53:42;101654.72;;;8.74;100.00
19236;BME280;9752;54.270;12.470;2024-02-21T03:58:45;101665.16;;;8.86;100.00
19236;BME280;9752;54.270;12.470;2024-02-21T04:03:46;101652.47;;;8.89;100.00
19236;BME280;9752;54.270;12.470;2024-02-21T04:08:48;101658.00;;;8.93;100.00
19236;BME280;9752;54.270;12.470;2024-02-21T04:13:51;101658.00;;;8.93;100.00
19236;BME280;9752;54.270;12.470;2024-02-21T04:18:52;101656.56;;;8.97;100.00
19236;BME280;9752;54.270;12.470;2024-02-21T04:23:54;101660.31;;;9.01;100.00
19236;BME280;9752;54.270;12.470;2024-02-21T04:28:57;101649.47;;;8.94;100.00
19236;BME280;9752;54.270;12.470;2024-02-21T04:33:59;101634.44;;;9.01;100.00
19236;BME280;9752;54.270;12.470;2024-02-21T04:39:00;101638.84;;;9.02;100.00
19236;BME280;9752;54.270;12.470;2024-02-21T04:44:04;101636.00;;;8.98;100.00
19236;BME280;9752;54.270;12.470;2024-02-21T04:49:05;101641.97;;;8.97;100.00
19236;BME280;9752;54.270;12.470;2024-02-21T04:54:07;101639.75;;;9.02;100.00
19236;BME280;9752;54.270;12.470;2024-02-21T04:59:10;101647.03;;;8.96;100.00
19236;BME280;9752;54.270;12.470;2024-02-21T05:04:12;101638.78;;;8.90;100.00
19236;BME280;9752;54.270;12.470;2024-02-21T05:09:13;101657.94;;;8.82;100.00
19236;BME280;9752;54.270;12.470;2024-02-21T05:14:16;101676.97;;;8.72;100.00
19236;BME280;9752;54.270;12.470;2024-02-21T05:19:18;101667.56;;;8.62;100.00
19236;BME280;9752;54.270;12.470;2024-02-21T05:24:20;101679.56;;;8.72;100.00
19236;BME280;9752;54.270;12.470;2024-02-21T05:29:23;101691.81;;;8.74;100.00
19236;BME280;9752;54.270;12.470;2024-02-21T05:34:25;101707.25;;;8.73;100.00
19236;BME280;9752;54.270;12.470;2024-02-21T05:39:27;101734.41;;;8.68;100.00
19236;BME280;9752;54.270;12.470;2024-02-21T05:44:31;101772.53;;;8.70;100.00
19236;BME280;9752;54.270;12.470;2024-02-21T05:49:32;101808.25;;;8.54;100.00
19236;BME280;9752;54.270;12.470;2024-02-21T05:54:34;101830.03;;;8.27;100.00
19236;BME280;9752;54.270;12.470;2024-02-21T05:59:40;101819.94;;;8.19;100.00
19236;BME280;9752;54.270;12.470;2024-02-21T06:04:42;101831.50;;;8.04;100.00
19236;BME280;9752;54.270;12.470;2024-02-21T06:09:44;101860.69;;;7.93;100.00
19236;BME280;9752;54.270;12.470;2024-02-21T06:14:47;101853.84;;;7.93;100.00
19236;BME280;9752;54.270;12.470;2024-02-21T06:19:49;101856.66;;;7.86;100.00
19236;BME280;9752;54.270;12.470;2024-02-21T06:24:50;101864.06;;;7.92;100.00
19236;BME280;9752;54.270;12.470;2024-02-21T06:29:55;101869.59;;;7.86;100.00
19236;BME280;9752;54.270;12.470;2024-02-21T06:34:57;101867.94;;;7.97;100.00
19236;BME280;9752;54.270;12.470;2024-02-21T06:39:59;101866.34;;;7.89;100.00
19236;BME280;9752;54.270;12.470;2024-02-21T06:45:02;101862.22;;;7.91;100.00
19236;BME280;9752;54.270;12.470;2024-02-21T06:50:04;101858.22;;;7.94;100.00
19236;BME280;9752;54.270;12.470;2024-02-21T06:55:07;101836.53;;;7.92;100.00
19236;BME280;9752;54.270;12.470;2024-02-21T07:00:13;101821.63;;;7.79;100.00
19236;BME280;9752;54.270;12.470;2024-02-21T07:05:15;101804.78;;;7.64;100.00
19236;BME280;9752;54.270;12.470;2024-02-21T07:10:17;101822.91;;;7.45;100.00
19236;BME280;9752;54.270;12.470;2024-02-21T07:15:20;101825.06;;;7.59;100.00
19236;BME280;9752;54.270;12.470;2024-02-21T07:20:22;101793.63;;;7.84;100.00
19236;BME280;9752;54.270;12.470;2024-02-21T07:25:23;101758.69;;;8.08;100.00
19236;BME280;9752;54.270;12.470;2024-02-21T07:30:26;101752.50;;;8.16;100.00
19236;BME280;9752;54.270;12.470;2024-02-21T07:35:28;101738.63;;;8.06;100.00
19236;BME280;9752;54.270;12.470;2024-02-21T07:40:29;101730.38;;;7.99;100.00
19236;BME280;9752;54.270;12.470;2024-02-21T07:45:32;101725.59;;;7.94;100.00
19236;BME280;9752;54.270;12.470;2024-02-21T07:50:34;101713.44;;;7.93;100.00
19236;BME280;9752;54.270;12.470;2024-02-21T07:55:36;101704.03;;;8.14;100.00
19236;BME280;9752;54.270;12.470;2024-02-21T08:00:39;101707.00;;;8.59;100.00
19236;BME280;9752;54.270;12.470;2024-02-21T08:05:40;101703.84;;;8.84;100.00
19236;BME280;9752;54.270;12.470;2024-02-21T08:10:42;101696.13;;;8.64;100.00
19236;BME280;9752;54.270;12.470;2024-02-21T08:15:45;101675.09;;;8.38;100.00
19236;BME280;9752;54.270;12.470;2024-02-21T08:20:47;101675.84;;;8.58;100.00
19236;BME280;9752;54.270;12.470;2024-02-21T08:25:48;101651.59;;;8.78;100.00
19236;BME280;9752;54.270;12.470;2024-02-21T08:30:51;101659.28;;;8.98;100.00
19236;BME280;9752;54.270;12.470;2024-02-21T08:35:53;101654.50;;;9.25;100.00
19236;BME280;9752;54.270;12.470;2024-02-21T08:40:55;101651.25;;;9.50;100.00
19236;BME280;9752;54.270;12.470;2024-02-21T08:45:58;101640.03;;;9.83;100.00
19236;BME280;9752;54.270;12.470;2024-02-21T08:50:59;101615.63;;;9.69;100.00
19236;BME280;9752;54.270;12.470;2024-02-21T08:56:01;101623.31;;;9.46;100.00
19236;BME280;9752;54.270;12.470;2024-02-21T09:01:04;101616.22;;;9.43;100.00
19236;BME280;9752;54.270;12.470;2024-02-21T09:06:07;101604.38;;;9.13;100.00
19236;BME280;9752;54.270;12.470;2024-02-21T09:11:09;101612.88;;;9.56;100.00
19236;BME280;9752;54.270;12.470;2024-02-21T09:16:12;101621.56;;;9.12;100.00
19236;BME280;9752;54.270;12.470;2024-02-21T09:21:14;101611.09;;;9.55;100.00
19236;BME280;9752;54.270;12.470;2024-02-21T09:26:15;101624.47;;;9.27;100.00
19236;BME280;9752;54.270;12.470;2024-02-21T09:31:18;101623.38;;;9.13;100.00
19236;BME280;9752;54.270;12.470;2024-02-21T09:36:20;101604.91;;;9.09;100.00
19236;BME280;9752;54.270;12.470;2024-02-21T09:41:25;101608.53;;;9.11;100.00
19236;BME280;9752;54.270;12.470;2024-02-21T09:46:39;101611.94;;;9.22;100.00
19236;BME280;9752;54.270;12.470;2024-02-21T09:51:44;101600.75;;;9.11;100.00
19236;BME280;9752;54.270;12.470;2024-02-21T09:56:47;101604.09;;;9.54;100.00
19236;BME280;9752;54.270;12.470;2024-02-21T10:01:51;101602.84;;;9.83;100.00
19236;BME280;9752;54.270;12.470;2024-02-21T10:06:53;101591.09;;;9.42;100.00
19236;BME280;9752;54.270;12.470;2024-02-21T10:12:06;101593.47;;;9.39;100.00
19236;BME280;9752;54.270;12.470;2024-02-21T10:17:16;101603.88;;;9.51;100.00
19236;BME280;9752;54.270;12.470;2024-02-21T10:22:19;101607.78;;;9.24;100.00
19236;BME280;9752;54.270;12.470;2024-02-21T10:27:23;101589.03;;;9.60;100.00
19236;BME280;9752;54.270;12.470;2024-02-21T10:32:26;101586.03;;;9.44;100.00
19236;BME280;9752;54.270;12.470;2024-02-21T10:37:28;101573.66;;;9.85;100.00
19236;BME280;9752;54.270;12.470;2024-02-21T10:42:31;101568.19;;;10.04;100.00
19236;BME280;9752;54.270;12.470;2024-02-21T10:47:37;101583.19;;;9.41;100.00
19236;BME280;9752;54.270;12.470;2024-02-21T10:52:47;101572.81;;;9.63;100.00
19236;BME280;9752;54.270;12.470;2024-02-21T10:57:52;101555.16;;;9.69;100.00
19236;BME280;9752;54.270;12.470;2024-02-21T11:02:56;101556.66;;;9.77;100.00
19236;BME280;9752;54.270;12.470;2024-02-21T11:07:58;101542.63;;;9.63;100.00
19236;BME280;9752;54.270;12.470;2024-02-21T11:13:06;101530.66;;;10.46;100.00
19236;BME280;9752;54.270;12.470;2024-02-21T11:18:10;101518.38;;;10.32;100.00
19236;BME280;9752;54.270;12.470;2024-02-21T11:23:12;101507.66;;;10.39;100.00
19236;BME280;9752;54.270;12.470;2024-02-21T11:28:13;101493.66;;;10.25;100.00
19236;BME280;9752;54.270;12.470;2024-02-21T11:33:17;101479.72;;;10.11;100.00
19236;BME280;9752;54.270;12.470;2024-02-21T11:38:19;101473.59;;;10.11;100.00
19236;BME280;9752;54.270;12.470;2024-02-21T11:43:25;101469.13;;;10.08;100.00
19236;BME280;9752;54.270;12.470;2024-02-21T11:48:28;101469.91;;;10.31;100.00
19236;BME280;9752;54.270;12.470;2024-02-21T11:53:30;101463.13;;;10.21;100.00
19236;BME280;9752;54.270;12.470;2024-02-21T11:58:33;101459.66;;;10.21;100.00
19236;BME280;9752;54.270;12.470;2024-02-21T12:03:36;101452.31;;;10.15;100.00
19236;BME280;9752;54.270;12.470;2024-02-21T12:08:41;101443.19;;;10.44;100.00
19236;BME280;9752;54.270;12.470;2024-02-21T12:13:43;101438.09;;;10.22;100.00
19236;BME280;9752;54.270;12.470;2024-02-21T12:18:48;101436.31;;;10.32;100.00
19236;BME280;9752;54.270;12.470;2024-02-21T12:23:49;101420.91;;;10.59;100.00
19236;BME280;9752;54.270;12.470;2024-02-21T12:28:51;101415.13;;;10.88;100.00
19236;BME280;9752;54.270;12.470;2024-02-21T12:33:54;101404.94;;;10.78;100.00
19236;BME280;9752;54.270;12.470;2024-02-21T12:38:56;101401.63;;;10.81;100.00
19236;BME280;9752;54.270;12.470;2024-02-21T12:43:58;101389.19;;;10.88;100.00
19236;BME280;9752;54.270;12.470;2024-02-21T12:49:01;101385.34;;;11.08;100.00
19236;BME280;9752;54.270;12.470;2024-02-21T12:54:03;101389.28;;;10.90;100.00
19236;BME280;9752;54.270;12.470;2024-02-21T12:59:04;101386.94;;;10.81;100.00
19236;BME280;9752;54.270;12.470;2024-02-21T13:04:09;101381.03;;;10.96;100.00
19236;BME280;9752;54.270;12.470;2024-02-21T13:09:12;101370.34;;;10.66;100.00
19236;BME280;9752;54.270;12.470;2024-02-21T13:14:14;101364.78;;;10.73;100.00
19236;BME280;9752;54.270;12.470;2024-02-21T13:19:17;101366.66;;;10.75;100.00
19236;BME280;9752;54.270;12.470;2024-02-21T13:24:18;101366.28;;;11.08;100.00
19236;BME280;9752;54.270;12.470;2024-02-21T13:29:20;101362.25;;;11.00;100.00
19236;BME280;9752;54.270;12.470;2024-02-21T13:34:23;101344.94;;;11.12;100.00
19236;BME280;9752;54.270;12.470;2024-02-21T13:39:25;101357.06;;;11.00;100.00
19236;BME280;9752;54.270;12.470;2024-02-21T13:44:27;101353.97;;;10.92;100.00
19236;BME280;9752;54.270;12.470;2024-02-21T13:49:30;101342.13;;;11.09;100.00
19236;BME280;9752;54.270;12.470;2024-02-21T13:54:32;101360.06;;;10.67;100.00
19236;BME280;9752;54.270;12.470;2024-02-21T13:59:34;101343.25;;;10.74;100.00
19236;BME280;9752;54.270;12.470;2024-02-21T14:04:37;101329.84;;;10.81;100.00
19236;BME280;9752;54.270;12.470;2024-02-21T14:09:39;101327.03;;;10.65;100.00
19236;BME280;9752;54.270;12.470;2024-02-21T14:14:40;101319.41;;;10.80;100.00
19236;BME280;9752;54.270;12.470;2024-02-21T14:19:44;101311.28;;;10.75;100.00
19236;BME280;9752;54.270;12.470;2024-02-21T14:24:46;101310.28;;;10.73;100.00
19236;BME280;9752;54.270;12.470;2024-02-21T14:29:48;101304.47;;;10.89;100.00
19236;BME280;9752;54.270;12.470;2024-02-21T14:34:51;101297.88;;;11.07;100.00
19236;BME280;9752;54.270;12.470;2024-02-21T14:39:52;101289.56;;;11.00;100.00
19236;BME280;9752;54.270;12.470;2024-02-21T14:44:54;101288.19;;;11.05;100.00
19236;BME280;9752;54.270;12.470;2024-02-21T14:50:06;101286.09;;;11.12;100.00
19236;BME280;9752;54.270;12.470;2024-02-21T14:55:08;101272.84;;;11.21;100.00
19236;BME280;9752;54.270;12.470;2024-02-21T15:00:10;101252.13;;;11.23;100.00
19236;BME280;9752;54.270;12.470;2024-02-21T15:05:14;101246.75;;;11.06;100.00
19236;BME280;9752;54.270;12.470;2024-02-21T15:10:16;101227.19;;;11.11;100.00
19236;BME280;9752;54.270;12.470;2024-02-21T15:15:19;101211.31;;;11.20;100.00
19236;BME280;9752;54.270;12.470;2024-02-21T15:20:22;101211.03;;;11.02;100.00
19236;BME280;9752;54.270;12.470;2024-02-21T15:25:23;101207.72;;;10.91;100.00
19236;BME280;9752;54.270;12.470;2024-02-21T15:30:26;101208.31;;;11.01;100.00
19236;BME280;9752;54.270;12.470;2024-02-21T15:35:33;101209.50;;;10.66;100.00
19236;BME280;9752;54.270;12.470;2024-02-21T15:40:35;101205.38;;;10.56;100.00
19236;BME280;9752;54.270;12.470;2024-02-21T15:45:36;101204.59;;;10.44;100.00
19236;BME280;9752;54.270;12.470;2024-02-21T15:50:41;101189.88;;;10.31;100.00
19236;BME280;9752;54.270;12.470;2024-02-21T15:55:43;101180.41;;;10.31;100.00
19236;BME280;9752;54.270;12.470;2024-02-21T16:00:46;101181.72;;;10.38;100.00
19236;BME280;9752;54.270;12.470;2024-02-21T16:05:49;101179.06;;;10.25;100.00
19236;BME280;9752;54.270;12.470;2024-02-21T16:10:51;101169.66;;;10.13;100.00
19236;BME280;9752;54.270;12.470;2024-02-21T16:15:52;101171.22;;;9.98;100.00
19236;BME280;9752;54.270;12.470;2024-02-21T16:20:55;101165.94;;;9.96;100.00
19236;BME280;9752;54.270;12.470;2024-02-21T16:25:57;101164.41;;;9.87;100.00
19236;BME280;9752;54.270;12.470;2024-02-21T16:30:58;101171.94;;;9.84;100.00
19236;BME280;9752;54.270;12.470;2024-02-21T16:36:02;101177.72;;;9.80;100.00
19236;BME280;9752;54.270;12.470;2024-02-21T16:41:05;101174.00;;;9.76;100.00
19236;BME280;9752;54.270;12.470;2024-02-21T16:46:06;101169.13;;;9.81;100.00
19236;BME280;9752;54.270;12.470;2024-02-21T16:51:09;101168.53;;;9.71;100.00
19236;BME280;9752;54.270;12.470;2024-02-21T16:56:11;101168.31;;;9.68;100.00
19236;BME280;9752;54.270;12.470;2024-02-21T17:01:13;101164.47;;;9.63;100.00
19236;BME280;9752;54.270;12.470;2024-02-21T17:06:16;101164.47;;;9.63;100.00
19236;BME280;9752;54.270;12.470;2024-02-21T17:11:17;101155.94;;;9.64;100.00
19236;BME280;9752;54.270;12.470;2024-02-21T17:16:20;101159.06;;;9.72;100.00
19236;BME280;9752;54.270;12.470;2024-02-21T17:21:23;101159.72;;;9.69;100.00
19236;BME280;9752;54.270;12.470;2024-02-21T17:26:25;101161.13;;;9.64;100.00
19236;BME280;9752;54.270;12.470;2024-02-21T17:31:26;101151.53;;;9.63;100.00
19236;BME280;9752;54.270;12.470;2024-02-21T17:36:29;101146.03;;;9.58;100.00
19236;BME280;9752;54.270;12.470;2024-02-21T17:41:31;101140.16;;;9.61;100.00
19236;BME280;9752;54.270;12.470;2024-02-21T17:46:33;101134.81;;;9.46;100.00
19236;BME280;9752;54.270;12.470;2024-02-21T17:51:36;101125.81;;;9.53;100.00
19236;BME280;9752;54.270;12.470;2024-02-21T17:56:37;101105.88;;;9.52;100.00
19236;BME280;9752;54.270;12.470;2024-02-21T18:01:39;101091.19;;;9.39;100.00
19236;BME280;9752;54.270;12.470;2024-02-21T18:06:42;101073.53;;;9.33;100.00
19236;BME280;9752;54.270;12.470;2024-02-21T18:11:45;101063.91;;;9.19;100.00
19236;BME280;9752;54.270;12.470;2024-02-21T18:16:46;101062.00;;;9.16;100.00
19236;BME280;9752;54.270;12.470;2024-02-21T18:21:50;101049.53;;;9.11;100.00
19236;BME280;9752;54.270;12.470;2024-02-21T18:26:51;101037.66;;;9.01;100.00
19236;BME280;9752;54.270;12.470;2024-02-21T18:31:53;101026.38;;;9.01;100.00
19236;BME280;9752;54.270;12.470;2024-02-21T18:36:56;101011.31;;;8.95;100.00
19236;BME280;9752;54.270;12.470;2024-02-21T18:41:58;100998.44;;;8.83;100.00
19236;BME280;9752;54.270;12.470;2024-02-21T18:46:59;100975.81;;;8.92;100.00
19236;BME280;9752;54.270;12.470;2024-02-21T18:52:03;100955.69;;;8.88;100.00
19236;BME280;9752;54.270;12.470;2024-02-21T18:57:05;100942.88;;;8.78;100.00
19236;BME280;9752;54.270;12.470;2024-02-21T19:02:06;100931.91;;;8.69;100.00
19236;BME280;9752;54.270;12.470;2024-02-21T19:07:09;100947.81;;;8.62;100.00
19236;BME280;9752;54.270;12.470;2024-02-21T19:12:11;100952.88;;;8.60;100.00
19236;BME280;9752;54.270;12.470;2024-02-21T19:17:13;100951.91;;;8.46;100.00
19236;BME280;9752;54.270;12.470;2024-02-21T19:22:16;100949.63;;;8.39;100.00
19236;BME280;9752;54.270;12.470;2024-02-21T19:27:17;100934.03;;;8.26;100.00
19236;BME280;9752;54.270;12.470;2024-02-21T19:32:19;100923.47;;;8.23;100.00
19236;BME280;9752;54.270;12.470;2024-02-21T19:37:23;100911.00;;;8.17;100.00
19236;BME280;9752;54.270;12.470;2024-02-21T19:42:25;100900.56;;;8.15;100.00
19236;BME280;9752;54.270;12.470;2024-02-21T19:47:26;100890.34;;;8.17;100.00
19236;BME280;9752;54.270;12.470;2024-02-21T19:52:29;100879.88;;;8.15;100.00
19236;BME280;9752;54.270;12.470;2024-02-21T19:57:31;100870.69;;;8.07;100.00
19236;BME280;9752;54.270;12.470;2024-02-21T20:02:33;100855.19;;;8.07;100.00
19236;BME280;9752;54.270;12.470;2024-02-21T20:07:36;100854.09;;;8.04;100.00
19236;BME280;9752;54.270;12.470;2024-02-21T20:12:38;100847.34;;;8.06;100.00
19236;BME280;9752;54.270;12.470;2024-02-21T20:17:40;100848.69;;;8.12;100.00
19236;BME280;9752;54.270;12.470;2024-02-21T20:22:47;100828.00;;;8.12;100.00
19236;BME280;9752;54.270;12.470;2024-02-21T20:27:49;100822.69;;;8.23;100.00
19236;BME280;9752;54.270;12.470;2024-02-21T20:32:51;100800.66;;;8.28;100.00
19236;BME280;9752;54.270;12.470;2024-02-21T20:37:56;100797.66;;;8.21;100.00
19236;BME280;9752;54.270;12.470;2024-02-21T20:42:58;100781.22;;;8.21;100.00
19236;BME280;9752;54.270;12.470;2024-02-21T20:48:00;100770.00;;;8.20;100.00
19236;BME280;9752;54.270;12.470;2024-02-21T20:53:03;100769.44;;;8.25;100.00
19236;BME280;9752;54.270;12.470;2024-02-21T20:58:05;100760.09;;;8.27;100.00
19236;BME280;9752;54.270;12.470;2024-02-21T21:03:07;100753.81;;;8.23;100.00
19236;BME280;9752;54.270;12.470;2024-02-21T21:08:12;100754.41;;;8.19;100.00
19236;BME280;9752;54.270;12.470;2024-02-21T21:13:14;100755.50;;;8.23;100.00
19236;BME280;9752;54.270;12.470;2024-02-21T21:18:16;100734.00;;;8.10;100.00
19236;BME280;9752;54.270;12.470;2024-02-21T21:23:19;100727.44;;;8.15;100.00
19236;BME280;9752;54.270;12.470;2024-02-21T21:28:21;100715.75;;;8.20;100.00
19236;BME280;9752;54.270;12.470;2024-02-21T21:33:22;100704.63;;;8.21;100.00
19236;BME280;9752;54.270;12.470;2024-02-21T21:38:25;100693.69;;;8.12;100.00
19236;BME280;9752;54.270;12.470;2024-02-21T21:43:27;100681.94;;;8.17;100.00
19236;BME280;9752;54.270;12.470;2024-02-21T21:48:29;100684.28;;;8.01;100.00
19236;BME280;9752;54.270;12.470;2024-02-21T21:53:32;100663.63;;;8.01;100.00
19236;BME280;9752;54.270;12.470;2024-02-21T21:58:34;100659.47;;;8.03;100.00
19236;BME280;9752;54.270;12.470;2024-02-21T22:03:36;100650.72;;;8.01;100.00
19236;BME280;9752;54.270;12.470;2024-02-21T22:08:39;100638.47;;;7.98;100.00
19236;BME280;9752;54.270;12.470;2024-02-21T22:13:41;100631.53;;;7.97;100.00
19236;BME280;9752;54.270;12.470;2024-02-21T22:18:44;100612.63;;;7.98;100.00
19236;BME280;9752;54.270;12.470;2024-02-21T22:23:47;100598.06;;;7.99;100.00
19236;BME280;9752;54.270;12.470;2024-02-21T22:28:49;100590.31;;;7.99;100.00
19236;BME280;9752;54.270;12.470;2024-02-21T22:33:50;100579.97;;;7.99;100.00
19236;BME280;9752;54.270;12.470;2024-02-21T22:38:55;100570.84;;;8.04;100.00
19236;BME280;9752;54.270;12.470;2024-02-21T22:43:56;100561.31;;;8.16;100.00
19236;BME280;9752;54.270;12.470;2024-02-21T22:48:58;100552.38;;;8.25;100.00
19236;BME280;9752;54.270;12.470;2024-02-21T22:54:01;100550.50;;;8.22;100.00
19236;BME280;9752;54.270;12.470;2024-02-21T22:59:05;100516.31;;;8.26;100.00
19236;BME280;9752;54.270;12.470;2024-02-21T23:04:06;100503.41;;;8.26;100.00
19236;BME280;9752;54.270;12.470;2024-02-21T23:09:12;100501.69;;;8.27;100.00
19236;BME280;9752;54.270;12.470;2024-02-21T23:14:15;100499.22;;;8.28;100.00
19236;BME280;9752;54.270;12.470;2024-02-21T23:19:17;100493.44;;;8.19;100.00
19236;BME280;9752;54.270;12.470;2024-02-21T23:24:20;100484.03;;;8.19;100.00
19236;BME280;9752;54.270;12.470;2024-02-21T23:29:22;100477.94;;;8.19;100.00
19236;BME280;9752;54.270;12.470;2024-02-21T23:34:24;100463.94;;;8.15;100.00
19236;BME280;9752;54.270;12.470;2024-02-21T23:39:27;100446.78;;;8.16;100.00
19236;BME280;9752;54.270;12.470;2024-02-21T23:44:30;100442.00;;;8.22;100.00
19236;BME280;9752;54.270;12.470;2024-02-21T23:49:32;100427.19;;;8.19;100.00
19236;BME280;9752;54.270;12.470;2024-02-21T23:54:35;100407.41;;;8.20;100.00
19236;BME280;9752;54.270;12.470;2024-02-21T23:59:37;100407.69;;;8.25;100.00
